createdAt,value
2023-03-12T00:01:59.666Z,77.06
2023-03-12T00:04:26.873Z,77.30
2023-03-12T00:06:53.604Z,77.52
2023-03-12T00:09:20.014Z,77.50
2023-03-12T00:11:46.394Z,76.86
2023-03-12T00:14:12.752Z,76.88
2023-03-12T00:16:39.170Z,76.82
2023-03-12T00:19:05.550Z,77.39
2023-03-12T00:21:31.958Z,77.40
2023-03-12T00:23:58.365Z,77.29
2023-03-12T00:26:24.844Z,77.24
2023-03-12T00:28:51.615Z,77.59
2023-03-12T00:31:27.844Z,77.42
2023-03-12T00:33:55.991Z,77.20
2023-03-12T00:36:26.150Z,76.72
2023-03-12T00:38:53.642Z,75.73
2023-03-12T00:41:21.314Z,75.57
2023-03-12T00:43:49.045Z,74.91
2023-03-12T00:46:15.683Z,73.97
2023-03-12T00:48:42.377Z,73.62
2023-03-12T00:51:09.456Z,73.18
2023-03-12T00:53:36.568Z,73.05
2023-03-12T00:56:04.287Z,72.83
2023-03-12T00:58:30.898Z,72.30
2023-03-12T01:00:57.340Z,72.51
2023-03-12T01:03:23.912Z,72.04
2023-03-12T01:05:54.652Z,71.75
2023-03-12T01:08:22.404Z,71.18
2023-03-12T01:10:48.861Z,71.19
2023-03-12T01:13:15.488Z,70.68
2023-03-12T01:15:41.844Z,70.52
2023-03-12T01:18:08.265Z,70.62
2023-03-12T01:20:34.783Z,70.38
2023-03-12T01:23:01.245Z,70.05
2023-03-12T01:25:27.773Z,69.74
2023-03-12T01:27:54.125Z,69.59
2023-03-12T01:30:20.484Z,69.40
2023-03-12T01:32:46.942Z,69.57
2023-03-12T01:35:13.510Z,68.96
2023-03-12T01:37:39.957Z,68.54
2023-03-12T01:40:06.654Z,68.70
2023-03-12T01:42:33.003Z,68.68
2023-03-12T01:45:01.784Z,68.65
2023-03-12T01:47:31.766Z,68.43
2023-03-12T01:50:00.924Z,68.61
2023-03-12T01:52:27.223Z,68.81
2023-03-12T01:55:23.171Z,68.46
2023-03-12T01:57:53.722Z,68.49
2023-03-12T02:00:23.380Z,68.24
2023-03-12T02:02:52.155Z,68.38
2023-03-12T02:05:51.267Z,67.98
2023-03-12T02:08:18.521Z,68.09
2023-03-12T02:10:45.731Z,68.10
2023-03-12T02:13:12.619Z,68.27
2023-03-12T02:15:39.868Z,68.02
2023-03-12T02:18:11.381Z,68.03
2023-03-12T02:20:43.766Z,68.20
2023-03-12T02:23:16.420Z,68.16
2023-03-12T02:25:47.627Z,68.69
2023-03-12T02:28:15.924Z,68.59
2023-03-12T02:30:47.081Z,68.51
2023-03-12T02:33:15.295Z,68.64
2023-03-12T02:35:42.272Z,68.34
2023-03-12T02:38:33.785Z,68.13
2023-03-12T02:41:05.214Z,68.08
2023-03-12T02:43:31.632Z,68.10
2023-03-12T02:45:58.024Z,68.04
2023-03-12T02:48:24.390Z,68.16
2023-03-12T02:50:50.788Z,68.24
2023-03-12T02:53:17.194Z,67.65
2023-03-12T02:55:43.557Z,67.65
2023-03-12T02:58:09.910Z,67.49
2023-03-12T03:00:37.667Z,67.76
2023-03-12T03:03:04.054Z,67.51
2023-03-12T03:05:30.412Z,67.83
2023-03-12T03:07:56.914Z,67.93
2023-03-12T03:10:23.313Z,67.96
2023-03-12T03:12:50.069Z,68.52
2023-03-12T03:15:16.729Z,68.34
2023-03-12T03:17:43.338Z,68.57
2023-03-12T03:20:11.853Z,68.05
2023-03-12T03:22:39.145Z,67.99
2023-03-12T03:25:07.360Z,67.74
2023-03-12T03:27:33.855Z,67.96
2023-03-12T03:30:00.342Z,67.70
2023-03-12T03:32:27.286Z,67.76
2023-03-12T03:34:53.803Z,67.84
2023-03-12T03:37:20.214Z,67.77
2023-03-12T03:39:46.643Z,67.82
2023-03-12T03:42:13.022Z,67.85
2023-03-12T03:44:39.454Z,67.89
2023-03-12T03:47:05.996Z,67.50
2023-03-12T03:49:32.385Z,67.79
2023-03-12T03:51:58.735Z,67.18
2023-03-12T03:54:25.150Z,67.35
2023-03-12T03:56:51.498Z,67.53
2023-03-12T03:59:17.924Z,67.27
2023-03-12T04:01:44.312Z,67.53
2023-03-12T04:04:10.713Z,67.44
2023-03-12T04:06:37.189Z,67.11
2023-03-12T04:09:04.175Z,67.43
2023-03-12T04:11:30.596Z,66.96
2023-03-12T04:13:57.555Z,67.14
2023-03-12T04:16:24.698Z,67.09
2023-03-12T04:18:51.118Z,66.85
2023-03-12T04:21:17.680Z,66.52
2023-03-12T04:23:44.176Z,66.63
2023-03-12T04:26:10.840Z,66.33
2023-03-12T04:28:37.757Z,66.33
2023-03-12T04:31:06.941Z,66.22
2023-03-12T04:33:36.462Z,66.40
2023-03-12T04:36:03.835Z,66.34
2023-03-12T04:38:30.860Z,66.36
2023-03-12T04:41:01.808Z,66.47
2023-03-12T04:43:29.576Z,66.41
2023-03-12T04:45:56.148Z,66.37
2023-03-12T04:48:22.726Z,66.29
2023-03-12T04:50:50.286Z,66.28
2023-03-12T04:53:17.137Z,66.20
2023-03-12T04:55:43.538Z,66.71
2023-03-12T04:58:10.039Z,66.22
2023-03-12T05:00:36.624Z,66.21
2023-03-12T05:03:03.110Z,66.47
2023-03-12T05:05:29.519Z,66.84
2023-03-12T05:07:55.892Z,67.28
2023-03-12T05:10:22.327Z,68.02
2023-03-12T05:12:48.739Z,68.73
2023-03-12T05:15:17.723Z,69.92
2023-03-12T05:17:44.520Z,70.54
2023-03-12T05:20:12.181Z,71.56
2023-03-12T05:22:38.988Z,72.54
2023-03-12T05:25:06.095Z,73.07
2023-03-12T05:27:32.831Z,73.78
2023-03-12T05:29:59.234Z,74.25
2023-03-12T05:32:25.806Z,74.68
2023-03-12T05:34:52.238Z,75.97
2023-03-12T05:37:18.725Z,76.89
2023-03-12T05:39:46.670Z,77.08
2023-03-12T05:42:14.511Z,78.02
2023-03-12T05:44:41.758Z,78.63
2023-03-12T05:47:08.586Z,79.02
2023-03-12T05:49:35.109Z,79.67
2023-03-12T05:52:01.529Z,80.38
2023-03-12T05:54:29.126Z,80.62
2023-03-12T05:56:56.307Z,81.26
2023-03-12T05:59:22.815Z,81.80
2023-03-12T06:01:49.281Z,82.09
2023-03-12T06:04:15.661Z,82.44
2023-03-12T06:06:42.333Z,83.15
2023-03-12T06:09:08.667Z,84.02
2023-03-12T06:11:35.410Z,84.11
2023-03-12T06:14:02.061Z,84.86
2023-03-12T06:16:29.652Z,85.54
2023-03-12T06:18:58.811Z,86.48
2023-03-12T06:21:28.627Z,87.71
2023-03-12T06:23:55.419Z,87.72
2023-03-12T06:26:22.673Z,88.09
2023-03-12T06:28:50.582Z,88.55
2023-03-12T06:31:17.997Z,88.97
2023-03-12T06:33:44.497Z,89.25
2023-03-12T06:36:11.639Z,89.73
2023-03-12T06:38:38.832Z,89.63
2023-03-12T06:41:17.388Z,90.12
2023-03-12T06:43:44.911Z,90.31
2023-03-12T06:46:17.033Z,90.25
2023-03-12T06:48:46.110Z,90.78
2023-03-12T06:51:14.574Z,91.76
2023-03-12T06:53:42.616Z,91.72
2023-03-12T06:56:09.928Z,91.61
2023-03-12T06:58:36.308Z,91.50
2023-03-12T07:01:03.645Z,91.70
2023-03-12T07:03:29.999Z,91.79
2023-03-12T07:05:57.856Z,91.75
2023-03-12T07:08:25.407Z,91.77
2023-03-12T07:10:51.752Z,91.86
2023-03-12T07:13:18.174Z,91.82
2023-03-12T07:15:46.413Z,91.47
2023-03-12T07:18:12.861Z,91.31
2023-03-12T07:20:41.722Z,91.45
2023-03-12T07:23:08.798Z,91.28
2023-03-12T07:25:37.535Z,91.17
2023-03-12T07:28:04.428Z,91.06
2023-03-12T07:30:33.306Z,90.99
2023-03-12T07:33:02.155Z,91.03
2023-03-12T07:35:29.696Z,91.19
2023-03-12T07:37:56.210Z,91.29
2023-03-12T07:40:22.933Z,91.31
2023-03-12T07:42:50.991Z,91.27
2023-03-12T07:45:18.584Z,91.27
2023-03-12T07:47:45.919Z,91.50
2023-03-12T07:50:13.273Z,91.63
2023-03-12T07:52:39.728Z,91.92
2023-03-12T07:55:07.144Z,91.91
2023-03-12T07:57:33.759Z,91.69
2023-03-12T08:00:00.209Z,91.97
2023-03-12T08:02:26.700Z,91.77
2023-03-12T08:04:53.092Z,91.96
2023-03-12T08:07:19.575Z,91.89
2023-03-12T08:09:49.427Z,91.98
2023-03-12T08:12:16.252Z,92.29
2023-03-12T08:14:42.725Z,91.95
2023-03-12T08:17:09.138Z,92.28
2023-03-12T08:19:35.560Z,91.99
2023-03-12T08:22:01.873Z,91.98
2023-03-12T08:24:28.287Z,92.11
2023-03-12T08:26:54.767Z,92.19
2023-03-12T08:29:21.075Z,92.19
2023-03-12T08:32:03.454Z,92.28
2023-03-12T08:34:30.767Z,92.49
2023-03-12T08:36:57.327Z,92.52
2023-03-12T08:39:23.664Z,92.93
2023-03-12T08:41:51.626Z,93.25
2023-03-12T08:44:18.094Z,93.71
2023-03-12T08:46:44.474Z,93.90
2023-03-12T08:49:10.775Z,94.43
2023-03-12T08:51:37.225Z,95.49
2023-03-12T08:54:05.240Z,95.65
2023-03-12T08:56:32.100Z,96.83
2023-03-12T08:58:59.444Z,97.44
2023-03-12T09:01:25.826Z,98.13
2023-03-12T09:03:55.060Z,98.52
2023-03-12T09:06:21.475Z,99.04
2023-03-12T09:08:48.009Z,99.29
2023-03-12T09:11:15.007Z,100.00
2023-03-12T09:14:05.109Z,100.00
2023-03-12T09:16:28.642Z,100.00
2023-03-12T09:18:55.024Z,100.00
2023-03-12T09:21:21.499Z,100.00
2023-03-12T09:23:47.884Z,100.00
2023-03-12T09:26:14.623Z,100.00
2023-03-12T09:28:42.412Z,100.00
2023-03-12T09:31:08.860Z,100.00
2023-03-12T09:33:35.895Z,100.00
2023-03-12T09:36:02.979Z,100.00
2023-03-12T09:38:31.779Z,100.00
2023-03-12T09:40:58.843Z,100.00
2023-03-12T09:43:25.289Z,100.00
2023-03-12T09:45:52.327Z,100.00
2023-03-12T09:48:41.903Z,100.00
2023-03-12T09:51:22.012Z,100.00
2023-03-12T09:53:55.970Z,100.00
2023-03-12T09:56:23.374Z,100.00
2023-03-12T09:58:50.723Z,100.00
2023-03-12T10:01:38.805Z,100.00
2023-03-12T10:04:14.433Z,100.00
2023-03-12T10:07:09.820Z,100.00
2023-03-12T10:09:36.181Z,100.00
2023-03-12T10:12:23.946Z,100.00
2023-03-12T10:15:03.550Z,100.00
2023-03-12T10:17:43.704Z,100.00
2023-03-12T10:20:31.861Z,100.00
2023-03-12T10:23:27.989Z,100.00
2023-03-12T10:26:14.703Z,100.00
2023-03-12T10:28:56.219Z,100.00
2023-03-12T10:31:27.996Z,100.00
2023-03-12T10:33:59.986Z,100.00
2023-03-12T10:36:36.534Z,100.00
2023-03-12T10:39:04.619Z,100.00
2023-03-12T10:41:34.606Z,100.00
2023-03-12T10:44:07.598Z,100.00
2023-03-12T10:46:37.032Z,100.00
2023-03-12T10:49:21.815Z,100.00
2023-03-12T10:51:56.044Z,100.00
2023-03-12T10:54:32.946Z,100.00
2023-03-12T10:56:59.836Z,100.00
2023-03-12T10:59:30.409Z,100.00
2023-03-12T11:01:57.865Z,100.00
2023-03-12T11:04:32.313Z,100.00
2023-03-12T11:07:07.811Z,100.00
2023-03-12T11:09:34.599Z,100.00
2023-03-12T11:12:01.018Z,100.00
2023-03-12T11:14:29.952Z,100.00
2023-03-12T11:17:16.838Z,100.00
2023-03-12T11:19:43.254Z,100.00
2023-03-12T11:22:11.599Z,100.00
2023-03-12T11:24:56.626Z,100.00
2023-03-12T11:27:44.481Z,100.00
2023-03-12T11:30:19.339Z,100.00
2023-03-12T11:32:49.006Z,100.00
2023-03-12T11:35:28.768Z,100.00
2023-03-12T11:38:01.334Z,100.00
2023-03-12T11:40:52.093Z,100.00
2023-03-12T11:43:47.534Z,100.00
2023-03-12T11:46:26.845Z,100.00
2023-03-12T11:49:17.684Z,100.00
2023-03-12T11:51:55.340Z,100.00
2023-03-12T11:54:44.963Z,100.00
2023-03-12T11:57:14.272Z,100.00
2023-03-12T11:59:54.776Z,100.00
2023-03-12T12:02:42.416Z,100.00
2023-03-12T12:05:08.711Z,100.00
2023-03-12T12:07:41.220Z,100.00
2023-03-12T12:10:35.455Z,100.00
2023-03-12T12:13:04.788Z,100.00
2023-03-12T12:15:59.224Z,100.00
2023-03-12T12:18:52.869Z,100.00
2023-03-12T12:21:43.061Z,100.00
2023-03-12T12:24:29.575Z,100.00
2023-03-12T12:27:08.273Z,100.00
2023-03-12T12:29:59.063Z,100.00
2023-03-12T12:33:09.212Z,100.00
2023-03-12T12:35:37.991Z,100.00
2023-03-12T12:38:22.974Z,100.00
2023-03-12T12:41:00.361Z,100.00
2023-03-12T12:43:38.017Z,100.00
2023-03-12T12:46:09.719Z,100.00
2023-03-12T12:49:08.391Z,100.00
2023-03-12T12:51:48.844Z,100.00
2023-03-12T12:54:51.861Z,100.00
2023-03-12T12:57:25.163Z,100.00
2023-03-12T13:00:06.228Z,100.00
2023-03-12T13:02:34.454Z,100.00
2023-03-12T13:05:01.216Z,100.00
2023-03-12T13:07:28.179Z,100.00
2023-03-12T13:09:57.692Z,100.00
2023-03-12T13:12:47.518Z,100.00
2023-03-12T13:15:29.334Z,100.00
2023-03-12T13:17:55.752Z,100.00
2023-03-12T13:20:28.778Z,100.00
2023-03-12T13:23:16.390Z,100.00
2023-03-12T13:25:57.078Z,100.00
2023-03-12T13:28:26.418Z,100.00
2023-03-12T13:30:53.862Z,100.00
2023-03-12T13:33:38.802Z,100.00
2023-03-12T13:36:28.146Z,100.00
2023-03-12T13:39:06.802Z,100.00
2023-03-12T13:41:40.310Z,100.00
2023-03-12T13:44:32.963Z,100.00
2023-03-12T13:47:00.913Z,100.00
2023-03-12T13:49:35.508Z,100.00
2023-03-12T13:52:18.895Z,100.00
2023-03-12T13:54:49.192Z,100.00
2023-03-12T13:57:31.536Z,100.00
2023-03-12T13:59:58.973Z,100.00
2023-03-12T14:02:32.117Z,100.00
2023-03-12T14:05:07.668Z,98.64
2023-03-12T14:07:52.963Z,97.94
2023-03-12T14:10:28.418Z,97.13
2023-03-12T14:13:17.952Z,95.77
2023-03-12T14:16:05.606Z,95.30
2023-03-12T14:18:35.623Z,94.63
2023-03-12T14:21:07.161Z,94.44
2023-03-12T14:23:38.316Z,94.39
2023-03-12T14:26:06.685Z,93.91
2023-03-12T14:28:40.651Z,93.55
2023-03-12T14:31:14.954Z,93.08
2023-03-12T14:33:50.041Z,92.43
2023-03-12T14:36:20.379Z,91.84
2023-03-12T14:38:51.685Z,90.62
2023-03-12T14:41:25.665Z,90.34
2023-03-12T14:43:53.950Z,89.76
2023-03-12T14:46:23.106Z,89.10
2023-03-12T14:48:51.696Z,88.51
2023-03-12T14:51:30.506Z,88.16
2023-03-12T14:54:03.304Z,87.82
2023-03-12T14:56:34.733Z,87.88
2023-03-12T14:59:20.329Z,87.71
2023-03-12T15:01:47.790Z,86.69
2023-03-12T15:04:21.147Z,86.36
2023-03-12T15:06:50.831Z,85.53
2023-03-12T15:09:21.975Z,84.47
2023-03-12T15:11:54.818Z,84.31
2023-03-12T15:14:22.729Z,83.55
2023-03-12T15:16:50.729Z,82.80
2023-03-12T15:19:22.840Z,82.88
2023-03-12T15:21:50.489Z,82.45
2023-03-12T15:24:18.073Z,82.68
2023-03-12T15:26:44.552Z,83.12
2023-03-12T15:29:26.151Z,82.97
2023-03-12T15:31:55.671Z,82.70
2023-03-12T15:34:37.032Z,82.68
2023-03-12T15:37:18.924Z,82.81
2023-03-12T15:39:49.918Z,83.12
2023-03-12T15:42:19.763Z,83.31
2023-03-12T15:44:49.515Z,83.61
2023-03-12T15:47:22.600Z,83.79
2023-03-12T15:49:53.401Z,82.20
2023-03-12T15:52:19.718Z,81.85
2023-03-12T15:55:09.941Z,80.69
2023-03-12T15:57:56.772Z,80.31
2023-03-12T16:00:25.156Z,80.28
2023-03-12T16:03:00.584Z,79.78
2023-03-12T16:05:33.295Z,79.02
2023-03-12T16:08:15.808Z,78.70
2023-03-12T16:10:42.334Z,77.76
2023-03-12T16:13:14.163Z,77.12
2023-03-12T16:15:40.952Z,76.33
2023-03-12T16:18:13.140Z,76.14
2023-03-12T16:20:39.690Z,76.25
2023-03-12T16:23:06.073Z,75.68
2023-03-12T16:25:32.956Z,75.62
2023-03-12T16:28:04.864Z,75.13
2023-03-12T16:30:34.471Z,74.72
2023-03-12T16:33:03.083Z,74.33
2023-03-12T16:35:33.531Z,74.16
2023-03-12T16:38:00.983Z,73.99
2023-03-12T16:40:33.830Z,74.32
2023-03-12T16:43:03.515Z,74.36
2023-03-12T16:45:33.271Z,74.34
2023-03-12T16:48:02.990Z,74.08
2023-03-12T16:50:30.173Z,74.22
2023-03-12T16:52:56.945Z,74.18
2023-03-12T16:55:27.439Z,74.09
2023-03-12T16:57:57.888Z,74.42
2023-03-12T17:00:27.442Z,74.19
2023-03-12T17:02:57.804Z,74.31
2023-03-12T17:05:29.857Z,74.50
2023-03-12T17:07:57.449Z,74.50
2023-03-12T17:10:25.173Z,74.38
2023-03-12T17:12:53.256Z,74.52
2023-03-12T17:15:30.461Z,74.34
2023-03-12T17:17:59.019Z,74.37
2023-03-12T17:20:25.829Z,74.12
2023-03-12T17:22:53.135Z,74.33
2023-03-12T17:25:24.399Z,74.53
2023-03-12T17:27:50.945Z,74.34
2023-03-12T17:30:18.870Z,74.72
2023-03-12T17:32:45.230Z,74.99
2023-03-12T17:35:11.936Z,74.91
2023-03-12T17:37:38.346Z,74.73
2023-03-12T17:40:08.226Z,75.10
2023-03-12T17:42:35.965Z,75.21
2023-03-12T17:45:07.177Z,75.18
2023-03-12T17:47:33.613Z,75.30
2023-03-12T17:50:00.129Z,75.26
2023-03-12T17:52:26.710Z,75.35
2023-03-12T17:54:53.302Z,75.67
2023-03-12T17:57:19.719Z,75.86
2023-03-12T17:59:46.160Z,76.03
2023-03-12T18:02:14.290Z,76.14
2023-03-12T18:04:41.007Z,76.36
2023-03-12T18:07:07.749Z,76.46
2023-03-12T18:09:34.274Z,76.72
2023-03-12T18:12:00.993Z,76.67
2023-03-12T18:14:27.666Z,77.09
2023-03-12T18:16:54.039Z,76.91
2023-03-12T18:19:20.499Z,77.04
2023-03-12T18:21:46.904Z,77.20
2023-03-12T18:24:14.699Z,77.30
2023-03-12T18:26:42.156Z,77.37
2023-03-12T18:29:08.553Z,76.97
2023-03-12T18:31:34.972Z,77.37
2023-03-12T18:34:01.487Z,77.07
2023-03-12T18:36:27.936Z,77.45
2023-03-12T18:38:54.370Z,77.76
2023-03-12T18:41:20.827Z,77.76
2023-03-12T18:43:47.241Z,77.75
2023-03-12T18:46:13.746Z,77.73
2023-03-12T18:48:42.936Z,77.92
2023-03-12T18:51:10.554Z,78.09
2023-03-12T18:53:36.901Z,78.07
2023-03-12T18:56:03.520Z,77.96
2023-03-12T18:58:30.254Z,77.91
2023-03-12T19:00:58.007Z,78.06
2023-03-12T19:03:26.703Z,78.33
2023-03-12T19:06:10.781Z,78.50
2023-03-12T19:08:37.979Z,78.33
2023-03-12T19:11:13.329Z,78.37
2023-03-12T19:13:39.723Z,78.15
2023-03-12T19:16:08.938Z,78.26
2023-03-12T19:18:36.694Z,78.42
2023-03-12T19:21:03.483Z,78.60
2023-03-12T19:23:30.018Z,78.61
2023-03-12T19:25:56.428Z,78.38
2023-03-12T19:28:22.971Z,78.40
2023-03-12T19:30:49.540Z,78.53
2023-03-12T19:33:16.019Z,78.47
2023-03-12T19:35:42.978Z,78.34
2023-03-12T19:38:09.454Z,78.52
2023-03-12T19:40:35.904Z,78.28
2023-03-12T19:43:02.708Z,78.36
2023-03-12T19:45:29.311Z,78.34
2023-03-12T19:47:55.807Z,77.81
2023-03-12T19:50:23.838Z,78.24
2023-03-12T19:52:50.183Z,78.12
2023-03-12T19:55:16.644Z,78.09
2023-03-12T19:57:43.141Z,78.36
2023-03-12T20:00:12.074Z,78.27
2023-03-12T20:02:39.325Z,78.03
2023-03-12T20:05:07.142Z,78.19
2023-03-12T20:07:33.632Z,78.08
2023-03-12T20:10:00.311Z,78.31
2023-03-12T20:12:26.701Z,78.08
2023-03-12T20:14:53.305Z,78.64
2023-03-12T20:17:19.787Z,78.52
2023-03-12T20:19:46.222Z,78.76
2023-03-12T20:22:13.009Z,79.12
2023-03-12T20:24:39.534Z,78.88
2023-03-12T20:27:06.005Z,79.37
2023-03-12T20:29:32.485Z,79.51
2023-03-12T20:31:58.911Z,79.54
2023-03-12T20:34:25.594Z,79.23
2023-03-12T20:36:52.096Z,79.29
2023-03-12T20:39:18.558Z,79.18
2023-03-12T20:41:45.011Z,79.29
2023-03-12T20:44:11.508Z,79.26
2023-03-12T20:46:37.920Z,79.05
2023-03-12T20:49:04.398Z,79.66
2023-03-12T20:51:31.018Z,79.23
2023-03-12T20:53:57.702Z,79.22
2023-03-12T20:56:24.078Z,79.49
2023-03-12T20:58:50.562Z,79.13
2023-03-12T21:01:16.972Z,79.55
2023-03-12T21:03:43.372Z,79.63
2023-03-12T21:06:09.821Z,79.47
2023-03-12T21:08:36.246Z,79.68
2023-03-12T21:11:06.465Z,79.68
2023-03-12T21:13:32.859Z,79.63
2023-03-12T21:15:59.559Z,79.67
2023-03-12T21:18:26.146Z,79.60
2023-03-12T21:20:52.638Z,79.91
2023-03-12T21:23:19.000Z,79.64
2023-03-12T21:25:45.670Z,79.62
2023-03-12T21:28:12.179Z,79.38
2023-03-12T21:30:39.054Z,79.72
2023-03-12T21:33:05.770Z,80.06
2023-03-12T21:35:32.292Z,79.62
2023-03-12T21:37:59.066Z,79.86
2023-03-12T21:40:25.606Z,79.57
2023-03-12T21:42:52.143Z,79.70
2023-03-12T21:45:18.798Z,79.77
2023-03-12T21:47:45.282Z,79.75
2023-03-12T21:50:11.808Z,79.61
2023-03-12T21:52:43.700Z,79.85
2023-03-12T21:55:10.839Z,79.98
2023-03-12T21:57:37.796Z,80.25
2023-03-12T22:00:05.960Z,80.17
2023-03-12T22:02:32.468Z,80.20
2023-03-12T22:05:00.408Z,80.52
2023-03-12T22:07:30.111Z,80.60
2023-03-12T22:09:56.604Z,80.79
2023-03-12T22:12:23.491Z,80.51
2023-03-12T22:14:49.942Z,80.60
2023-03-12T22:17:17.200Z,80.81
2023-03-12T22:19:43.783Z,80.93
2023-03-12T22:22:10.214Z,80.86
2023-03-12T22:24:37.443Z,80.83
2023-03-12T22:27:06.474Z,81.62
2023-03-12T22:29:33.815Z,81.48
2023-03-12T22:32:00.151Z,81.51
2023-03-12T22:34:26.603Z,82.04
2023-03-12T22:36:53.110Z,81.87
2023-03-12T22:39:19.965Z,81.69
2023-03-12T22:41:50.770Z,81.86
2023-03-12T22:44:17.396Z,81.89
2023-03-12T22:46:43.946Z,82.10
2023-03-12T22:49:10.676Z,82.39
2023-03-12T22:51:37.392Z,82.34
2023-03-12T22:54:04.436Z,82.58
2023-03-12T22:56:31.023Z,82.93
2023-03-12T22:58:57.445Z,83.23
2023-03-12T23:01:24.829Z,83.11
2023-03-12T23:03:51.936Z,83.39
2023-03-12T23:06:21.526Z,83.78
2023-03-12T23:08:48.651Z,83.85
2023-03-12T23:11:16.632Z,83.90
2023-03-12T23:13:44.947Z,83.96
2023-03-12T23:16:17.146Z,84.09
2023-03-12T23:18:43.754Z,84.10
2023-03-12T23:21:15.620Z,84.28
2023-03-12T23:23:43.520Z,84.25
2023-03-12T23:26:16.538Z,84.38
2023-03-12T23:28:43.184Z,84.51
2023-03-12T23:31:10.533Z,84.59
2023-03-12T23:33:37.776Z,84.91
2023-03-12T23:36:05.871Z,84.90
2023-03-12T23:38:32.774Z,85.05
2023-03-12T23:41:04.447Z,85.20
2023-03-12T23:43:30.910Z,85.31
2023-03-12T23:45:59.329Z,85.36
2023-03-12T23:48:27.223Z,85.22
2023-03-12T23:50:53.999Z,85.31
2023-03-12T23:53:20.769Z,85.41
2023-03-12T23:55:56.183Z,85.17
2023-03-12T23:58:23.548Z,85.13
